sensor_id;sensor_type;location;lat;lon;timestamp;pressure;altitude;pressure_sealevel;temperature;humidity
692;BME280;70475;50.084;8.576;2023-08-31T00:02:30;100024.38;;;12.86;100.00
692;BME280;70475;50.084;8.576;2023-08-31T00:04:58;100030.13;;;12.90;100.00
692;BME280;70475;50.084;8.576;2023-08-31T00:07:26;100031.38;;;12.87;100.00
692;BME280;70475;50.084;8.576;2023-08-31T00:09:55;100029.72;;;12.86;100.00
692;BME280;70475;50.084;8.576;2023-08-31T00:12:22;100029.34;;;12.83;100.00
692;BME280;70475;50.084;8.576;2023-08-31T00:14:50;100027.22;;;12.98;100.00
692;BME280;70475;50.084;8.576;2023-08-31T00:17:18;100014.47;;;13.00;100.00
692;BME280;70475;50.084;8.576;2023-08-31T00:19:45;100024.16;;;12.88;100.00
692;BME280;70475;50.084;8.576;2023-08-31T00:22:13;100034.13;;;12.74;100.00
692;BME280;70475;50.084;8.576;2023-08-31T00:24:41;100032.31;;;12.62;100.00
692;BME280;70475;50.084;8.576;2023-08-31T00:27:10;100026.97;;;12.62;100.00
692;BME280;70475;50.084;8.576;2023-08-31T00:29:39;100037.47;;;12.57;100.00
692;BME280;70475;50.084;8.576;2023-08-31T00:32:06;100031.06;;;12.64;100.00
692;BME280;70475;50.084;8.576;2023-08-31T00:34:34;100038.84;;;12.66;100.00
692;BME280;70475;50.084;8.576;2023-08-31T00:37:01;100038.84;;;12.72;100.00
692;BME280;70475;50.084;8.576;2023-08-31T00:39:33;100042.56;;;12.71;100.00
692;BME280;70475;50.084;8.576;2023-08-31T00:42:01;100051.19;;;12.67;100.00
692;BME280;70475;50.084;8.576;2023-08-31T00:44:30;100048.31;;;12.68;100.00
692;BME280;70475;50.084;8.576;2023-08-31T00:46:58;100053.88;;;12.67;100.00
692;BME280;70475;50.084;8.576;2023-08-31T00:49:26;100054.28;;;12.64;100.00
692;BME280;70475;50.084;8.576;2023-08-31T00:51:55;100058.59;;;12.65;100.00
692;BME280;70475;50.084;8.576;2023-08-31T00:54:23;100053.25;;;12.58;100.00
692;BME280;70475;50.084;8.576;2023-08-31T00:56:52;100051.41;;;12.59;100.00
692;BME280;70475;50.084;8.576;2023-08-31T00:59:20;100056.59;;;12.54;100.00
692;BME280;70475;50.084;8.576;2023-08-31T01:01:51;100048.81;;;12.45;100.00
692;BME280;70475;50.084;8.576;2023-08-31T01:04:29;100049.81;;;12.51;100.00
692;BME280;70475;50.084;8.576;2023-08-31T01:07:04;100051.06;;;12.42;100.00
692;BME280;70475;50.084;8.576;2023-08-31T01:09:40;100054.19;;;12.32;100.00
692;BME280;70475;50.084;8.576;2023-08-31T01:12:13;100053.38;;;12.25;100.00
692;BME280;70475;50.084;8.576;2023-08-31T01:14:47;100059.53;;;12.26;100.00
692;BME280;70475;50.084;8.576;2023-08-31T01:17:17;100054.22;;;12.19;100.00
692;BME280;70475;50.084;8.576;2023-08-31T01:19:48;100051.94;;;12.29;100.00
692;BME280;70475;50.084;8.576;2023-08-31T01:22:27;100055.22;;;12.18;100.00
692;BME280;70475;50.084;8.576;2023-08-31T01:24:59;100056.88;;;12.13;100.00
692;BME280;70475;50.084;8.576;2023-08-31T01:27:31;100059.34;;;12.14;100.00
692;BME280;70475;50.084;8.576;2023-08-31T01:29:59;100057.94;;;12.12;100.00
692;BME280;70475;50.084;8.576;2023-08-31T01:32:26;100067.56;;;12.06;100.00
692;BME280;70475;50.084;8.576;2023-08-31T01:34:55;100062.00;;;12.08;100.00
692;BME280;70475;50.084;8.576;2023-08-31T01:37:34;100053.81;;;12.09;100.00
692;BME280;70475;50.084;8.576;2023-08-31T01:40:09;100071.06;;;12.13;100.00
692;BME280;70475;50.084;8.576;2023-08-31T01:42:42;100058.53;;;12.20;100.00
692;BME280;70475;50.084;8.576;2023-08-31T01:45:10;100069.81;;;12.22;100.00
692;BME280;70475;50.084;8.576;2023-08-31T01:47:38;100078.84;;;12.21;100.00
692;BME280;70475;50.084;8.576;2023-08-31T01:50:06;100075.16;;;12.22;100.00
692;BME280;70475;50.084;8.576;2023-08-31T01:52:34;100075.13;;;12.29;100.00
692;BME280;70475;50.084;8.576;2023-08-31T01:55:02;100075.97;;;12.29;100.00
692;BME280;70475;50.084;8.576;2023-08-31T01:57:31;100082.53;;;12.20;100.00
692;BME280;70475;50.084;8.576;2023-08-31T01:59:59;100084.41;;;12.13;100.00
692;BME280;70475;50.084;8.576;2023-08-31T02:02:26;100086.03;;;12.14;100.00
692;BME280;70475;50.084;8.576;2023-08-31T02:04:54;100078.84;;;12.28;100.00
692;BME280;70475;50.084;8.576;2023-08-31T02:07:21;100087.88;;;12.20;100.00
692;BME280;70475;50.084;8.576;2023-08-31T02:09:49;100085.00;;;12.15;100.00
692;BME280;70475;50.084;8.576;2023-08-31T02:12:17;100075.38;;;12.21;100.00
692;BME280;70475;50.084;8.576;2023-08-31T02:14:46;100074.75;;;12.25;100.00
692;BME280;70475;50.084;8.576;2023-08-31T02:17:13;100078.44;;;12.18;100.00
692;BME280;70475;50.084;8.576;2023-08-31T02:19:41;100086.88;;;12.15;100.00
692;BME280;70475;50.084;8.576;2023-08-31T02:22:08;100084.41;;;12.13;100.00
692;BME280;70475;50.084;8.576;2023-08-31T02:24:36;100086.03;;;12.14;100.00
692;BME280;70475;50.084;8.576;2023-08-31T02:27:04;100088.91;;;12.06;100.00
692;BME280;70475;50.084;8.576;2023-08-31T02:29:31;100085.84;;;12.16;100.00
692;BME280;70475;50.084;8.576;2023-08-31T02:32:03;100090.78;;;12.06;100.00
692;BME280;70475;50.084;8.576;2023-08-31T02:34:31;100093.03;;;12.02;100.00
692;BME280;70475;50.084;8.576;2023-08-31T02:37:01;100094.06;;;12.01;100.00
692;BME280;70475;50.084;8.576;2023-08-31T02:39:29;100100.22;;;12.08;100.00
692;BME280;70475;50.084;8.576;2023-08-31T02:41:56;100087.91;;;12.07;100.00
692;BME280;70475;50.084;8.576;2023-08-31T02:44:24;100098.59;;;12.07;100.00
692;BME280;70475;50.084;8.576;2023-08-31T02:46:51;100099.38;;;12.08;100.00
692;BME280;70475;50.084;8.576;2023-08-31T02:49:20;100100.84;;;12.10;100.00
692;BME280;70475;50.084;8.576;2023-08-31T02:51:48;100103.69;;;12.15;100.00
692;BME280;70475;50.084;8.576;2023-08-31T02:54:16;100110.69;;;12.16;100.00
692;BME280;70475;50.084;8.576;2023-08-31T02:56:43;100108.81;;;12.23;100.00
692;BME280;70475;50.084;8.576;2023-08-31T02:59:11;100109.66;;;12.17;100.00
692;BME280;70475;50.084;8.576;2023-08-31T03:01:39;100112.94;;;12.19;100.00
692;BME280;70475;50.084;8.576;2023-08-31T03:04:07;100109.06;;;12.09;100.00
692;BME280;70475;50.084;8.576;2023-08-31T03:06:36;100111.31;;;12.05;100.00
692;BME280;70475;50.084;8.576;2023-08-31T03:09:03;100105.75;;;12.07;100.00
692;BME280;70475;50.084;8.576;2023-08-31T03:11:31;100106.59;;;11.94;100.00
692;BME280;70475;50.084;8.576;2023-08-31T03:13:58;100105.13;;;11.92;100.00
692;BME280;70475;50.084;8.576;2023-08-31T03:16:26;100105.13;;;11.92;100.00
692;BME280;70475;50.084;8.576;2023-08-31T03:18:54;100111.72;;;11.96;100.00
692;BME280;70475;50.084;8.576;2023-08-31T03:21:21;100110.91;;;11.95;100.00
692;BME280;70475;50.084;8.576;2023-08-31T03:23:50;100106.41;;;11.96;100.00
692;BME280;70475;50.084;8.576;2023-08-31T03:26:18;100109.25;;;11.94;100.00
692;BME280;70475;50.084;8.576;2023-08-31T03:28:45;100103.31;;;11.92;100.00
692;BME280;70475;50.084;8.576;2023-08-31T03:31:13;100114.59;;;11.94;100.00
692;BME280;70475;50.084;8.576;2023-08-31T03:33:40;100117.06;;;11.89;100.00
692;BME280;70475;50.084;8.576;2023-08-31T03:36:08;100115.63;;;11.87;100.00
692;BME280;70475;50.084;8.576;2023-08-31T03:38:35;100115.81;;;11.85;100.00
692;BME280;70475;50.084;8.576;2023-08-31T03:41:06;100124.84;;;11.84;100.00
692;BME280;70475;50.084;8.576;2023-08-31T03:43:33;100122.81;;;11.86;100.00
692;BME280;70475;50.084;8.576;2023-08-31T03:46:01;100120.34;;;11.85;100.00
692;BME280;70475;50.084;8.576;2023-08-31T03:48:29;100119.09;;;11.87;100.00
692;BME280;70475;50.084;8.576;2023-08-31T03:50:56;100123.00;;;11.85;100.00
692;BME280;70475;50.084;8.576;2023-08-31T03:53:24;100127.72;;;11.89;100.00
692;BME280;70475;50.084;8.576;2023-08-31T03:55:51;100130.19;;;11.84;100.00
692;BME280;70475;50.084;8.576;2023-08-31T03:58:20;100133.25;;;11.81;100.00
692;BME280;70475;50.084;8.576;2023-08-31T04:00:49;100134.69;;;11.77;100.00
692;BME280;70475;50.084;8.576;2023-08-31T04:03:16;100141.69;;;11.78;100.00
692;BME280;70475;50.084;8.576;2023-08-31T04:05:44;100138.81;;;11.73;100.00
692;BME280;70475;50.084;8.576;2023-08-31T04:08:12;100142.50;;;11.72;100.00
692;BME280;70475;50.084;8.576;2023-08-31T04:10:40;100154.19;;;11.71;100.00
692;BME280;70475;50.084;8.576;2023-08-31T04:13:07;100149.03;;;11.70;100.00
692;BME280;70475;50.084;8.576;2023-08-31T04:15:37;100152.94;;;11.67;100.00
692;BME280;70475;50.084;8.576;2023-08-31T04:18:07;100156.66;;;11.66;100.00
692;BME280;70475;50.084;8.576;2023-08-31T04:20:35;100171.63;;;11.67;100.00
692;BME280;70475;50.084;8.576;2023-08-31T04:23:02;100169.78;;;11.68;100.00
692;BME280;70475;50.084;8.576;2023-08-31T04:25:30;100171.19;;;11.64;100.00
692;BME280;70475;50.084;8.576;2023-08-31T04:27:58;100167.91;;;11.68;100.00
692;BME280;70475;50.084;8.576;2023-08-31T04:30:25;100168.91;;;11.61;100.00
692;BME280;70475;50.084;8.576;2023-08-31T04:32:54;100165.06;;;11.63;100.00
692;BME280;70475;50.084;8.576;2023-08-31T04:35:22;100170.13;;;11.58;100.00
692;BME280;70475;50.084;8.576;2023-08-31T04:37:56;100172.84;;;11.65;100.00
692;BME280;70475;50.084;8.576;2023-08-31T04:40:23;100179.97;;;11.51;100.00
692;BME280;70475;50.084;8.576;2023-08-31T04:42:51;100176.66;;;11.49;100.00
692;BME280;70475;50.084;8.576;2023-08-31T04:45:19;100178.91;;;11.39;100.00
692;BME280;70475;50.084;8.576;2023-08-31T04:47:46;100187.06;;;11.31;100.00
692;BME280;70475;50.084;8.576;2023-08-31T04:50:17;100189.91;;;11.23;100.00
692;BME280;70475;50.084;8.576;2023-08-31T04:52:45;100178.25;;;11.31;100.00
692;BME280;70475;50.084;8.576;2023-08-31T04:55:13;100190.56;;;11.25;100.00
692;BME280;70475;50.084;8.576;2023-08-31T04:57:40;100190.94;;;11.22;100.00
692;BME280;70475;50.084;8.576;2023-08-31T05:00:08;100202.25;;;11.31;100.00
692;BME280;70475;50.084;8.576;2023-08-31T05:02:38;100209.22;;;11.25;100.00
692;BME280;70475;50.084;8.576;2023-08-31T05:05:06;100199.53;;;11.18;100.00
692;BME280;70475;50.084;8.576;2023-08-31T05:07:35;100201.97;;;11.13;100.00
692;BME280;70475;50.084;8.576;2023-08-31T05:10:05;100209.72;;;11.08;100.00
692;BME280;70475;50.084;8.576;2023-08-31T05:12:32;100204.44;;;11.14;100.00
692;BME280;70475;50.084;8.576;2023-08-31T05:15:00;100203.06;;;11.31;100.00
692;BME280;70475;50.084;8.576;2023-08-31T05:17:28;100201.03;;;11.33;100.00
692;BME280;70475;50.084;8.576;2023-08-31T05:19:56;100208.41;;;11.38;100.00
692;BME280;70475;50.084;8.576;2023-08-31T05:22:24;100225.44;;;11.37;100.00
692;BME280;70475;50.084;8.576;2023-08-31T05:24:53;100224.63;;;11.36;100.00
692;BME280;70475;50.084;8.576;2023-08-31T05:27:21;100234.06;;;11.39;100.00
692;BME280;70475;50.084;8.576;2023-08-31T05:29:49;100240.03;;;11.41;100.00
692;BME280;70475;50.084;8.576;2023-08-31T05:32:16;100233.69;;;11.48;100.00
692;BME280;70475;50.084;8.576;2023-08-31T05:34:44;100235.19;;;11.64;100.00
692;BME280;70475;50.084;8.576;2023-08-31T05:37:11;100246.31;;;11.67;100.00
692;BME280;70475;50.084;8.576;2023-08-31T05:39:40;100244.97;;;12.17;100.00
692;BME280;70475;50.084;8.576;2023-08-31T05:42:09;100243.91;;;14.04;100.00
692;BME280;70475;50.084;8.576;2023-08-31T05:44:37;100243.97;;;14.28;100.00
692;BME280;70475;50.084;8.576;2023-08-31T05:47:05;100236.19;;;15.12;100.00
692;BME280;70475;50.084;8.576;2023-08-31T05:49:32;100248.84;;;16.07;100.00
692;BME280;70475;50.084;8.576;2023-08-31T05:52:01;100241.25;;;17.03;92.96
692;BME280;70475;50.084;8.576;2023-08-31T05:54:28;100247.75;;;17.41;85.71
692;BME280;70475;50.084;8.576;2023-08-31T05:56:56;100247.97;;;17.63;80.46
692;BME280;70475;50.084;8.576;2023-08-31T05:59:25;100255.66;;;16.97;82.83
692;BME280;70475;50.084;8.576;2023-08-31T06:01:52;100263.94;;;17.07;84.69
692;BME280;70475;50.084;8.576;2023-08-31T06:04:21;100256.13;;;18.69;76.30
692;BME280;70475;50.084;8.576;2023-08-31T06:06:49;100251.09;;;17.99;76.15
692;BME280;70475;50.084;8.576;2023-08-31T06:09:20;100249.91;;;18.68;75.30
692;BME280;70475;50.084;8.576;2023-08-31T06:11:47;100254.44;;;17.39;79.06
692;BME280;70475;50.084;8.576;2023-08-31T06:14:15;100269.78;;;16.58;80.95
692;BME280;70475;50.084;8.576;2023-08-31T06:16:44;100268.97;;;15.14;89.10
692;BME280;70475;50.084;8.576;2023-08-31T06:19:11;100264.44;;;14.48;94.96
692;BME280;70475;50.084;8.576;2023-08-31T06:21:41;100260.06;;;14.96;95.01
692;BME280;70475;50.084;8.576;2023-08-31T06:24:09;100270.16;;;14.20;99.29
692;BME280;70475;50.084;8.576;2023-08-31T06:26:39;100270.44;;;14.43;100.00
692;BME280;70475;50.084;8.576;2023-08-31T06:29:06;100280.50;;;14.23;97.72
692;BME280;70475;50.084;8.576;2023-08-31T06:31:37;100282.13;;;14.24;100.00
692;BME280;70475;50.084;8.576;2023-08-31T06:34:06;100272.72;;;14.39;100.00
692;BME280;70475;50.084;8.576;2023-08-31T06:36:34;100266.06;;;14.24;99.61
692;BME280;70475;50.084;8.576;2023-08-31T06:39:02;100270.69;;;14.04;99.72
692;BME280;70475;50.084;8.576;2023-08-31T06:41:30;100275.03;;;14.36;99.56
692;BME280;70475;50.084;8.576;2023-08-31T06:43:58;100273.38;;;14.04;100.00
692;BME280;70475;50.084;8.576;2023-08-31T06:46:26;100284.44;;;14.14;100.00
692;BME280;70475;50.084;8.576;2023-08-31T06:48:54;100283.97;;;13.86;100.00
692;BME280;70475;50.084;8.576;2023-08-31T06:51:23;100282.91;;;13.87;100.00
692;BME280;70475;50.084;8.576;2023-08-31T06:53:51;100278.88;;;14.09;100.00
692;BME280;70475;50.084;8.576;2023-08-31T06:56:18;100285.69;;;13.67;100.00
692;BME280;70475;50.084;8.576;2023-08-31T06:58:46;100286.97;;;14.02;100.00
692;BME280;70475;50.084;8.576;2023-08-31T07:01:14;100291.16;;;13.85;100.00
692;BME280;70475;50.084;8.576;2023-08-31T07:03:42;100289.78;;;14.14;100.00
692;BME280;70475;50.084;8.576;2023-08-31T07:06:10;100301.28;;;13.77;100.00
692;BME280;70475;50.084;8.576;2023-08-31T07:08:39;100302.75;;;13.73;100.00
692;BME280;70475;50.084;8.576;2023-08-31T07:11:08;100298.78;;;13.88;100.00
692;BME280;70475;50.084;8.576;2023-08-31T07:13:36;100303.28;;;13.88;100.00
692;BME280;70475;50.084;8.576;2023-08-31T07:16:04;100311.16;;;13.83;100.00
692;BME280;70475;50.084;8.576;2023-08-31T07:18:32;100305.38;;;13.86;100.00
692;BME280;70475;50.084;8.576;2023-08-31T07:21:00;100306.94;;;14.00;100.00
692;BME280;70475;50.084;8.576;2023-08-31T07:23:27;100304.59;;;13.79;100.00
692;BME280;70475;50.084;8.576;2023-08-31T07:25:57;100311.00;;;13.71;100.00
692;BME280;70475;50.084;8.576;2023-08-31T07:28:26;100315.66;;;13.89;100.00
692;BME280;70475;50.084;8.576;2023-08-31T07:31:00;100316.28;;;14.28;100.00
692;BME280;70475;50.084;8.576;2023-08-31T07:33:30;100326.09;;;14.41;98.26
692;BME280;70475;50.084;8.576;2023-08-31T07:35:58;100329.97;;;14.07;99.64
692;BME280;70475;50.084;8.576;2023-08-31T07:38:26;100325.44;;;14.08;100.00
692;BME280;70475;50.084;8.576;2023-08-31T07:40:54;100319.19;;;14.27;100.00
692;BME280;70475;50.084;8.576;2023-08-31T07:43:23;100319.28;;;14.45;100.00
692;BME280;70475;50.084;8.576;2023-08-31T07:45:50;100322.19;;;14.43;100.00
692;BME280;70475;50.084;8.576;2023-08-31T07:48:18;100314.50;;;15.03;99.46
692;BME280;70475;50.084;8.576;2023-08-31T07:50:46;100322.75;;;14.77;97.95
692;BME280;70475;50.084;8.576;2023-08-31T07:53:15;100322.00;;;14.63;93.98
692;BME280;70475;50.084;8.576;2023-08-31T07:55:51;100324.13;;;14.61;93.21
692;BME280;70475;50.084;8.576;2023-08-31T07:58:20;100323.94;;;15.05;95.82
692;BME280;70475;50.084;8.576;2023-08-31T08:00:52;100337.25;;;14.94;90.72
692;BME280;70475;50.084;8.576;2023-08-31T08:03:20;100338.56;;;14.85;91.16
692;BME280;70475;50.084;8.576;2023-08-31T08:05:48;100344.41;;;14.75;92.78
692;BME280;70475;50.084;8.576;2023-08-31T08:08:16;100339.66;;;15.02;93.72
692;BME280;70475;50.084;8.576;2023-08-31T08:10:44;100340.63;;;15.32;92.27
692;BME280;70475;50.084;8.576;2023-08-31T08:13:12;100349.00;;;15.60;90.81
692;BME280;70475;50.084;8.576;2023-08-31T08:15:40;100355.81;;;15.80;88.56
692;BME280;70475;50.084;8.576;2023-08-31T08:18:09;100352.34;;;15.91;88.75
692;BME280;70475;50.084;8.576;2023-08-31T08:20:37;100357.09;;;15.35;88.10
692;BME280;70475;50.084;8.576;2023-08-31T08:23:05;100347.72;;;15.44;90.15
692;BME280;70475;50.084;8.576;2023-08-31T08:25:33;100360.34;;;15.98;87.80
692;BME280;70475;50.084;8.576;2023-08-31T08:28:00;100351.53;;;16.09;84.37
692;BME280;70475;50.084;8.576;2023-08-31T08:30:29;100354.59;;;15.94;84.13
692;BME280;70475;50.084;8.576;2023-08-31T08:32:57;100353.78;;;15.94;84.73
692;BME280;70475;50.084;8.576;2023-08-31T08:35:26;100356.41;;;15.82;85.56
692;BME280;70475;50.084;8.576;2023-08-31T08:37:54;100360.66;;;15.90;83.52
692;BME280;70475;50.084;8.576;2023-08-31T08:40:21;100356.94;;;16.20;83.66
692;BME280;70475;50.084;8.576;2023-08-31T08:42:52;100365.00;;;16.20;82.90
692;BME280;70475;50.084;8.576;2023-08-31T08:45:24;100372.13;;;16.44;82.20
692;BME280;70475;50.084;8.576;2023-08-31T08:47:52;100364.97;;;16.09;82.41
692;BME280;70475;50.084;8.576;2023-08-31T08:50:20;100381.00;;;15.97;81.34
692;BME280;70475;50.084;8.576;2023-08-31T08:52:51;100378.16;;;16.10;82.89
692;BME280;70475;50.084;8.576;2023-08-31T08:55:19;100371.91;;;15.98;83.94
692;BME280;70475;50.084;8.576;2023-08-31T08:57:48;100381.66;;;15.93;82.63
692;BME280;70475;50.084;8.576;2023-08-31T09:00:16;100382.34;;;16.06;81.71
692;BME280;70475;50.084;8.576;2023-08-31T09:02:44;100376.53;;;16.39;81.85
692;BME280;70475;50.084;8.576;2023-08-31T09:05:11;100380.38;;;16.61;78.75
692;BME280;70475;50.084;8.576;2023-08-31T09:08:01;100389.81;;;16.52;78.87
692;BME280;70475;50.084;8.576;2023-08-31T09:10:36;100385.69;;;16.20;80.24
692;BME280;70475;50.084;8.576;2023-08-31T09:13:05;100390.16;;;16.44;81.32
692;BME280;70475;50.084;8.576;2023-08-31T09:15:42;100377.44;;;16.33;79.45
692;BME280;70475;50.084;8.576;2023-08-31T09:18:14;100375.91;;;16.55;81.41
692;BME280;70475;50.084;8.576;2023-08-31T09:20:46;100386.78;;;16.30;81.78
692;BME280;70475;50.084;8.576;2023-08-31T09:23:16;100382.56;;;16.53;81.02
692;BME280;70475;50.084;8.576;2023-08-31T09:25:45;100382.88;;;16.44;81.17
692;BME280;70475;50.084;8.576;2023-08-31T09:28:15;100376.91;;;16.72;79.89
692;BME280;70475;50.084;8.576;2023-08-31T09:30:44;100378.00;;;16.83;78.84
692;BME280;70475;50.084;8.576;2023-08-31T09:33:14;100380.13;;;17.04;77.79
692;BME280;70475;50.084;8.576;2023-08-31T09:35:48;100389.13;;;16.98;76.18
692;BME280;70475;50.084;8.576;2023-08-31T09:38:17;100373.81;;;17.10;75.30
692;BME280;70475;50.084;8.576;2023-08-31T09:40:45;100377.09;;;17.12;73.89
692;BME280;70475;50.084;8.576;2023-08-31T09:43:19;100375.47;;;17.34;75.45
692;BME280;70475;50.084;8.576;2023-08-31T09:45:47;100372.22;;;17.66;77.84
692;BME280;70475;50.084;8.576;2023-08-31T09:48:15;100376.59;;;17.95;77.56
692;BME280;70475;50.084;8.576;2023-08-31T09:50:44;100364.59;;;17.63;74.52
692;BME280;70475;50.084;8.576;2023-08-31T09:53:17;100366.59;;;17.56;77.43
692;BME280;70475;50.084;8.576;2023-08-31T09:55:47;100379.19;;;17.10;75.51
692;BME280;70475;50.084;8.576;2023-08-31T09:58:17;100370.63;;;16.90;75.61
692;BME280;70475;50.084;8.576;2023-08-31T10:00:46;100378.69;;;16.78;78.41
692;BME280;70475;50.084;8.576;2023-08-31T10:03:16;100380.09;;;16.81;78.54
692;BME280;70475;50.084;8.576;2023-08-31T10:05:46;100376.75;;;17.20;75.40
692;BME280;70475;50.084;8.576;2023-08-31T10:08:15;100377.94;;;17.35;73.82
692;BME280;70475;50.084;8.576;2023-08-31T10:10:44;100382.72;;;17.22;73.66
692;BME280;70475;50.084;8.576;2023-08-31T10:13:13;100374.31;;;17.41;73.27
692;BME280;70475;50.084;8.576;2023-08-31T10:15:43;100378.41;;;17.09;73.44
692;BME280;70475;50.084;8.576;2023-08-31T10:18:11;100374.97;;;17.02;76.02
692;BME280;70475;50.084;8.576;2023-08-31T10:20:41;100374.66;;;17.22;74.31
692;BME280;70475;50.084;8.576;2023-08-31T10:23:10;100368.47;;;17.56;73.23
692;BME280;70475;50.084;8.576;2023-08-31T10:26:02;100376.31;;;17.46;74.38
692;BME280;70475;50.084;8.576;2023-08-31T10:28:39;100371.75;;;17.58;74.91
692;BME280;70475;50.084;8.576;2023-08-31T10:31:07;100369.88;;;17.47;73.01
692;BME280;70475;50.084;8.576;2023-08-31T10:33:39;100370.47;;;17.49;75.64
692;BME280;70475;50.084;8.576;2023-08-31T10:36:13;100374.53;;;17.74;73.21
692;BME280;70475;50.084;8.576;2023-08-31T10:38:42;100370.88;;;17.80;70.76
692;BME280;70475;50.084;8.576;2023-08-31T10:41:20;100369.38;;;17.73;71.59
692;BME280;70475;50.084;8.576;2023-08-31T10:43:53;100384.13;;;17.82;71.50
692;BME280;70475;50.084;8.576;2023-08-31T10:46:28;100364.75;;;18.08;70.69
692;BME280;70475;50.084;8.576;2023-08-31T10:48:57;100359.91;;;18.10;70.77
692;BME280;70475;50.084;8.576;2023-08-31T10:51:26;100370.53;;;17.88;69.72
692;BME280;70475;50.084;8.576;2023-08-31T10:54:08;100375.44;;;17.91;71.50
692;BME280;70475;50.084;8.576;2023-08-31T10:57:00;100363.56;;;18.15;69.76
692;BME280;70475;50.084;8.576;2023-08-31T10:59:44;100367.75;;;18.51;68.27
692;BME280;70475;50.084;8.576;2023-08-31T11:02:34;100360.63;;;18.73;69.65
692;BME280;70475;50.084;8.576;2023-08-31T11:05:07;100351.75;;;18.33;68.17
692;BME280;70475;50.084;8.576;2023-08-31T11:07:35;100349.41;;;18.81;68.00
692;BME280;70475;50.084;8.576;2023-08-31T11:10:14;100359.47;;;18.41;66.91
692;BME280;70475;50.084;8.576;2023-08-31T11:12:45;100354.94;;;18.58;68.68
692;BME280;70475;50.084;8.576;2023-08-31T11:15:13;100351.38;;;18.41;67.82
692;BME280;70475;50.084;8.576;2023-08-31T11:17:42;100352.91;;;18.09;68.17
692;BME280;70475;50.084;8.576;2023-08-31T11:20:14;100357.13;;;18.05;67.85
692;BME280;70475;50.084;8.576;2023-08-31T11:22:44;100343.25;;;18.13;69.12
692;BME280;70475;50.084;8.576;2023-08-31T11:25:13;100349.25;;;18.15;71.07
692;BME280;70475;50.084;8.576;2023-08-31T11:27:41;100363.28;;;17.77;69.71
692;BME280;70475;50.084;8.576;2023-08-31T11:30:14;100355.47;;;18.04;71.04
692;BME280;70475;50.084;8.576;2023-08-31T11:32:48;100355.66;;;18.25;72.76
692;BME280;70475;50.084;8.576;2023-08-31T11:35:18;100350.97;;;18.21;70.65
692;BME280;70475;50.084;8.576;2023-08-31T11:37:50;100357.63;;;18.02;69.13
692;BME280;70475;50.084;8.576;2023-08-31T11:40:18;100358.19;;;18.32;70.67
692;BME280;70475;50.084;8.576;2023-08-31T11:42:47;100349.16;;;18.66;70.23
692;BME280;70475;50.084;8.576;2023-08-31T11:45:17;100349.13;;;18.10;69.82
692;BME280;70475;50.084;8.576;2023-08-31T11:47:45;100352.78;;;18.32;71.00
692;BME280;70475;50.084;8.576;2023-08-31T11:50:15;100355.91;;;18.24;68.43
692;BME280;70475;50.084;8.576;2023-08-31T11:52:44;100353.53;;;18.39;66.61
692;BME280;70475;50.084;8.576;2023-08-31T11:55:12;100346.84;;;18.58;66.69
692;BME280;70475;50.084;8.576;2023-08-31T11:57:48;100338.75;;;18.58;66.91
692;BME280;70475;50.084;8.576;2023-08-31T12:00:19;100341.81;;;18.78;67.85
692;BME280;70475;50.084;8.576;2023-08-31T12:02:55;100330.09;;;18.56;70.86
692;BME280;70475;50.084;8.576;2023-08-31T12:05:23;100334.06;;;18.37;67.68
692;BME280;70475;50.084;8.576;2023-08-31T12:07:53;100340.75;;;18.23;67.45
692;BME280;70475;50.084;8.576;2023-08-31T12:10:21;100336.44;;;18.50;67.96
692;BME280;70475;50.084;8.576;2023-08-31T12:12:48;100329.69;;;19.14;66.70
692;BME280;70475;50.084;8.576;2023-08-31T12:15:20;100320.59;;;20.17;60.97
692;BME280;70475;50.084;8.576;2023-08-31T12:17:49;100319.88;;;20.27;58.34
692;BME280;70475;50.084;8.576;2023-08-31T12:20:24;100325.78;;;20.24;59.95
692;BME280;70475;50.084;8.576;2023-08-31T12:22:52;100318.88;;;20.11;59.11
692;BME280;70475;50.084;8.576;2023-08-31T12:25:32;100323.50;;;20.64;60.26
692;BME280;70475;50.084;8.576;2023-08-31T12:28:00;100320.88;;;20.74;58.28
692;BME280;70475;50.084;8.576;2023-08-31T12:30:31;100322.00;;;20.78;57.62
692;BME280;70475;50.084;8.576;2023-08-31T12:32:59;100315.06;;;20.34;59.44
692;BME280;70475;50.084;8.576;2023-08-31T12:35:27;100329.91;;;20.53;58.67
692;BME280;70475;50.084;8.576;2023-08-31T12:37:59;100322.16;;;20.67;59.53
692;BME280;70475;50.084;8.576;2023-08-31T12:40:26;100321.03;;;20.63;62.95
692;BME280;70475;50.084;8.576;2023-08-31T12:42:54;100313.34;;;20.23;60.36
692;BME280;70475;50.084;8.576;2023-08-31T12:45:22;100315.47;;;19.35;61.45
692;BME280;70475;50.084;8.576;2023-08-31T12:47:54;100310.22;;;19.28;65.35
692;BME280;70475;50.084;8.576;2023-08-31T12:50:22;100311.53;;;19.42;62.92
692;BME280;70475;50.084;8.576;2023-08-31T12:52:50;100306.69;;;19.28;59.10
692;BME280;70475;50.084;8.576;2023-08-31T12:55:18;100306.63;;;19.61;60.15
692;BME280;70475;50.084;8.576;2023-08-31T12:57:46;100307.81;;;19.91;58.60
692;BME280;70475;50.084;8.576;2023-08-31T13:00:14;100304.84;;;19.93;55.41
692;BME280;70475;50.084;8.576;2023-08-31T13:02:43;100311.72;;;20.00;53.90
692;BME280;70475;50.084;8.576;2023-08-31T13:05:13;100314.44;;;19.79;52.69
692;BME280;70475;50.084;8.576;2023-08-31T13:07:41;100316.59;;;19.39;50.48
692;BME280;70475;50.084;8.576;2023-08-31T13:10:09;100319.03;;;19.24;52.11
692;BME280;70475;50.084;8.576;2023-08-31T13:12:37;100322.31;;;19.26;55.03
692;BME280;70475;50.084;8.576;2023-08-31T13:15:06;100316.03;;;19.20;54.19
692;BME280;70475;50.084;8.576;2023-08-31T13:17:34;100312.56;;;19.41;55.09